Time;durP1;ratioP1;P1;durP2;ratioP2;P2;SDS_P1;SDS_P2;PMS_P1;PMS_P2;Temp;Humidity;BMP_temperature;BMP_pressure;BME280_temperature;BME280_humidity;BME280_pressure;Samples;Min_cycle;Max_cycle;Signal;HPM_P1;HPM_P2
2021/12/13 00:02:04;;;;;;;15.67;14.50;;;8.00;99.90;;;;;;5051021;28;20824;-72
2021/12/13 00:04:34;;;;;;;14.43;13.70;;;8.10;99.90;;;;;;5051127;28;20950;-73
2021/12/13 00:07:13;;;;;;;15.17;14.40;;;7.90;99.90;;;;;;5050951;28;20483;-72
2021/12/13 00:09:48;;;;;;;15.73;14.77;;;8.00;99.90;;;;;;5063460;28;20452;-73
2021/12/13 00:12:21;;;;;;;15.27;14.40;;;8.00;99.90;;;;;;5071909;28;20529;-72
2021/12/13 00:14:52;;;;;;;15.87;14.47;;;8.00;99.90;;;;;;5060368;28;20447;-73
2021/12/13 00:17:21;;;;;;;14.70;13.90;;;7.90;99.90;;;;;;5051071;28;20734;-73
2021/12/13 00:19:52;;;;;;;14.93;14.03;;;8.00;99.90;;;;;;5050975;28;20942;-74
2021/12/13 00:22:25;;;;;;;16.60;15.50;;;8.00;99.90;;;;;;5050931;28;20481;-73
2021/12/13 00:24:53;;;;;;;16.07;15.17;;;8.00;99.90;;;;;;5050600;28;20961;-73
2021/12/13 00:27:25;;;;;;;15.47;14.77;;;8.00;99.90;;;;;;5050979;28;20480;-74
2021/12/13 00:30:00;;;;;;;17.23;16.10;;;8.10;99.90;;;;;;5050711;28;20796;-74
2021/12/13 00:32:33;;;;;;;15.47;14.77;;;8.10;99.90;;;;;;5050577;28;20956;-74
2021/12/13 00:35:02;;;;;;;16.53;15.43;;;8.10;99.90;;;;;;5050695;28;20455;-74
2021/12/13 00:37:32;;;;;;;16.00;15.10;;;8.00;99.90;;;;;;5050425;28;20462;-74
2021/12/13 00:40:02;;;;;;;15.53;14.60;;;8.10;99.90;;;;;;5050577;28;20459;-74
2021/12/13 00:42:34;;;;;;;16.70;15.53;;;8.00;99.90;;;;;;5050547;28;20962;-74
2021/12/13 00:45:07;;;;;;;17.60;16.33;;;7.80;99.90;;;;;;5050098;28;20784;-74
2021/12/13 00:47:37;;;;;;;18.87;17.30;;;7.60;99.90;;;;;;5050386;28;20889;-74
2021/12/13 00:50:08;;;;;;;17.10;16.03;;;7.50;99.90;;;;;;5050483;28;20513;-73
2021/12/13 00:52:36;;;;;;;18.27;16.97;;;7.40;99.90;;;;;;5050765;28;20516;-73
2021/12/13 00:55:10;;;;;;;18.40;17.40;;;7.30;99.90;;;;;;5050427;28;20785;-73
2021/12/13 00:57:44;;;;;;;18.27;16.97;;;7.20;99.90;;;;;;5050378;28;20444;-73
2021/12/13 01:00:18;;;;;;;19.17;17.90;;;7.30;99.90;;;;;;5050682;28;20447;-73
2021/12/13 01:02:48;;;;;;;19.20;17.90;;;7.40;99.90;;;;;;5050413;28;20513;-73
2021/12/13 01:05:17;;;;;;;18.40;17.23;;;7.40;99.90;;;;;;5050335;28;20443;-73
2021/12/13 01:08:10;;;;;;;17.70;16.37;;;7.40;99.90;;;;;;5050315;28;20482;-73
2021/12/13 01:11:04;;;;;;;19.57;18.33;;;7.50;99.90;;;;;;5050121;28;20459;-73
2021/12/13 01:13:35;;;;;;;18.80;17.70;;;7.30;99.90;;;;;;5049974;28;20447;-73
2021/12/13 01:16:15;;;;;;;19.37;17.97;;;7.20;99.90;;;;;;5050131;28;20501;-73
2021/12/13 01:19:00;;;;;;;20.13;18.67;;;7.00;99.90;;;;;;5049961;28;20478;-73
2021/12/13 01:21:38;;;;;;;21.37;19.70;;;6.90;99.90;;;;;;5049976;28;20450;-74
2021/12/13 01:24:12;;;;;;;20.60;19.00;;;6.90;99.90;;;;;;5050087;28;20485;-73
2021/12/13 01:26:43;;;;;;;22.07;20.60;;;6.80;99.90;;;;;;5049689;28;20530;-72
2021/12/13 01:29:13;;;;;;;23.67;21.47;;;6.90;99.90;;;;;;5049836;28;20460;-73
2021/12/13 01:31:44;;;;;;;21.10;19.70;;;6.80;99.90;;;;;;5049645;28;20451;-72
2021/12/13 01:34:12;;;;;;;24.23;22.37;;;6.80;99.90;;;;;;5049793;28;20456;-73
2021/12/13 01:36:45;;;;;;;71.13;31.53;;;6.70;99.90;;;;;;5049829;28;20462;-73
2021/12/13 01:39:16;;;;;;;265.80;135.30;;;6.70;99.90;;;;;;5049678;28;20461;-72
2021/12/13 01:41:46;;;;;;;17.60;16.70;;;6.70;99.90;;;;;;5049958;28;20437;-73
2021/12/13 01:44:16;;;;;;;22.17;20.57;;;6.70;99.90;;;;;;5049722;28;20551;-73
2021/12/13 01:46:47;;;;;;;25.17;23.03;;;6.70;99.90;;;;;;5050141;28;20459;-73
2021/12/13 01:49:15;;;;;;;21.20;19.63;;;6.60;99.90;;;;;;5049819;28;20945;-73
2021/12/13 01:51:42;;;;;;;21.23;19.53;;;6.50;99.90;;;;;;5052081;28;20468;-73
2021/12/13 01:54:13;;;;;;;19.60;18.40;;;6.60;99.90;;;;;;5053501;28;20448;-74
2021/12/13 01:56:46;;;;;;;21.13;19.63;;;6.60;99.90;;;;;;5053444;28;20942;-74
2021/12/13 02:02:12;;;;;;;20.77;18.73;;;6.60;99.90;;;;;;5053306;28;20485;-74
2021/12/13 02:04:39;;;;;;;21.00;19.13;;;6.60;99.90;;;;;;5053461;28;20432;-73
2021/12/13 02:07:07;;;;;;;19.90;18.50;;;6.60;99.90;;;;;;5053044;28;21091;-73
2021/12/13 02:09:36;;;;;;;19.53;18.43;;;6.60;99.90;;;;;;5052716;28;20549;-74
2021/12/13 02:12:07;;;;;;;22.67;20.83;;;6.60;99.90;;;;;;5053351;28;20456;-73
2021/12/13 02:14:35;;;;;;;19.10;17.93;;;6.70;99.90;;;;;;5052725;28;20460;-73
2021/12/13 02:17:17;;;;;;;20.50;19.23;;;6.70;99.90;;;;;;5053108;28;20897;-74
2021/12/13 02:19:50;;;;;;;20.73;19.33;;;6.70;99.90;;;;;;5053005;28;20548;-74
2021/12/13 02:22:27;;;;;;;20.80;19.33;;;6.60;99.90;;;;;;5052696;28;20483;-74
2021/12/13 02:24:59;;;;;;;21.27;19.70;;;6.60;99.90;;;;;;5052742;28;20451;-74
2021/12/13 02:27:28;;;;;;;20.47;18.83;;;6.60;99.90;;;;;;5052623;28;20486;-73
2021/12/13 02:30:00;;;;;;;22.87;21.07;;;6.50;99.90;;;;;;5052910;28;20455;-74
2021/12/13 02:32:35;;;;;;;20.53;18.83;;;6.50;99.90;;;;;;5052531;28;20448;-73
2021/12/13 02:35:05;;;;;;;19.63;18.30;;;6.50;99.90;;;;;;5052968;28;20486;-73
2021/12/13 02:37:34;;;;;;;20.63;19.10;;;6.50;99.90;;;;;;5052643;28;20949;-74
2021/12/13 02:40:04;;;;;;;22.73;19.40;;;6.50;99.90;;;;;;5052346;28;20462;-74
2021/12/13 02:42:32;;;;;;;22.67;20.27;;;6.50;99.90;;;;;;5052191;28;20455;-73
2021/12/13 02:45:12;;;;;;;21.23;19.30;;;6.60;99.90;;;;;;5052475;28;20446;-73
2021/12/13 02:47:45;;;;;;;21.20;19.50;;;6.60;99.90;;;;;;5052116;28;20845;-74
2021/12/13 02:50:15;;;;;;;21.40;19.53;;;6.60;99.90;;;;;;5052546;28;20461;-74
2021/12/13 02:52:44;;;;;;;21.30;19.63;;;6.60;99.90;;;;;;5052450;28;20463;-74
2021/12/13 02:55:17;;;;;;;20.87;19.40;;;6.60;99.90;;;;;;5052334;28;20659;-74
2021/12/13 02:57:49;;;;;;;22.30;20.73;;;6.60;99.90;;;;;;5052192;28;20458;-74
2021/12/13 03:00:20;;;;;;;20.60;19.00;;;6.60;99.90;;;;;;5052212;28;20457;-73
2021/12/13 03:02:50;;;;;;;22.30;20.33;;;6.60;99.90;;;;;;5052519;28;20455;-73
2021/12/13 03:05:21;;;;;;;22.90;20.90;;;6.60;99.90;;;;;;5052004;28;20855;-74
2021/12/13 03:07:54;;;;;;;20.77;19.40;;;6.70;99.90;;;;;;5052104;28;21003;-74
2021/12/13 03:10:24;;;;;;;22.07;20.13;;;6.80;99.90;;;;;;5053153;28;20470;-72
2021/12/13 03:12:51;;;;;;;21.03;19.53;;;6.70;99.90;;;;;;5043123;28;20452;-73
2021/12/13 03:15:23;;;;;;;22.00;20.40;;;6.70;99.90;;;;;;5042412;28;20446;-73
2021/12/13 03:17:54;;;;;;;21.00;19.60;;;6.70;99.90;;;;;;5041830;28;20498;-73
2021/12/13 03:20:37;;;;;;;21.67;19.87;;;6.70;99.90;;;;;;5041555;28;20460;-74
2021/12/13 03:23:20;;;;;;;20.33;19.03;;;6.70;99.90;;;;;;5041771;28;20985;-72
2021/12/13 03:26:07;;;;;;;21.33;20.03;;;6.70;99.90;;;;;;5041813;28;20501;-73
2021/12/13 03:28:51;;;;;;;21.70;20.20;;;6.70;99.90;;;;;;5044678;28;20529;-73
2021/12/13 03:31:25;;;;;;;22.37;20.93;;;6.70;99.90;;;;;;5041597;28;20441;-73
2021/12/13 03:34:00;;;;;;;24.00;22.07;;;6.70;99.90;;;;;;5041557;28;20482;-73
2021/12/13 03:36:46;;;;;;;24.47;22.40;;;6.70;99.90;;;;;;5040983;28;20460;-72
2021/12/13 03:39:17;;;;;;;25.40;23.27;;;6.70;99.90;;;;;;5041628;28;20439;-73
2021/12/13 03:41:48;;;;;;;24.57;22.47;;;6.60;99.90;;;;;;5040303;28;20463;-73
2021/12/13 03:44:18;;;;;;;25.27;23.17;;;6.70;99.90;;;;;;5041103;28;20478;-74
2021/12/13 03:46:47;;;;;;;25.27;23.40;;;6.70;99.90;;;;;;5040488;28;20451;-73
2021/12/13 03:49:18;;;;;;;24.20;22.40;;;6.60;99.90;;;;;;5039390;28;20480;-74
2021/12/13 03:51:45;;;;;;;27.23;24.97;;;6.70;99.90;;;;;;5040325;28;20446;-74
2021/12/13 03:54:17;;;;;;;24.90;23.43;;;6.70;99.90;;;;;;5040852;28;20441;-73
2021/12/13 03:56:47;;;;;;;25.43;23.73;;;6.70;99.90;;;;;;5040267;28;20451;-73
2021/12/13 03:59:17;;;;;;;25.87;23.83;;;6.70;99.90;;;;;;5039277;28;20444;-72
2021/12/13 04:01:47;;;;;;;26.13;24.20;;;6.70;99.90;;;;;;5041819;28;20846;-73
2021/12/13 04:04:19;;;;;;;27.17;25.10;;;6.70;99.90;;;;;;5038636;28;20987;-72
2021/12/13 04:06:51;;;;;;;27.30;24.90;;;6.70;99.90;;;;;;5042688;28;20453;-74
2021/12/13 04:09:22;;;;;;;27.37;25.00;;;6.70;99.90;;;;;;5040968;28;20654;-73
2021/12/13 04:11:54;;;;;;;27.03;24.93;;;6.70;99.90;;;;;;5040538;28;20437;-74
2021/12/13 04:14:30;;;;;;;27.20;25.30;;;6.70;99.90;;;;;;5040569;28;20466;-73
2021/12/13 04:17:07;;;;;;;27.10;24.80;;;6.70;99.90;;;;;;5043551;28;20513;-73
2021/12/13 04:19:49;;;;;;;26.33;24.30;;;6.80;99.90;;;;;;5035868;28;20448;-73
2021/12/13 04:22:18;;;;;;;26.17;24.27;;;6.80;99.90;;;;;;5030789;28;20476;-73
2021/12/13 04:24:50;;;;;;;27.27;25.20;;;6.90;99.90;;;;;;5031100;28;20460;-72
2021/12/13 04:27:23;;;;;;;26.33;24.30;;;6.90;99.90;;;;;;5031000;28;20460;-73
2021/12/13 04:29:54;;;;;;;27.37;25.10;;;6.90;99.90;;;;;;5030907;28;20467;-73
2021/12/13 04:32:25;;;;;;;27.00;24.83;;;6.90;99.90;;;;;;5030894;28;20445;-73
2021/12/13 04:34:53;;;;;;;27.63;25.43;;;7.00;99.90;;;;;;5031454;28;20448;-72
2021/12/13 04:37:24;;;;;;;28.70;26.10;;;6.90;99.90;;;;;;5031139;28;20456;-71
2021/12/13 04:39:56;;;;;;;25.97;24.27;;;7.00;99.90;;;;;;5040203;28;20428;-71
2021/12/13 04:42:25;;;;;;;25.63;23.90;;;7.20;99.90;;;;;;5041453;28;20448;-71
2021/12/13 04:44:58;;;;;;;28.43;25.83;;;7.20;99.90;;;;;;5037583;28;20485;-72
2021/12/13 04:47:28;;;;;;;24.87;22.87;;;7.20;99.90;;;;;;5031816;28;20471;-71
2021/12/13 04:50:05;;;;;;;26.63;24.27;;;7.10;99.90;;;;;;5030463;28;20454;-73
2021/12/13 04:52:34;;;;;;;24.33;22.70;;;7.10;99.90;;;;;;5030525;28;20839;-72
2021/12/13 04:55:06;;;;;;;26.13;24.33;;;7.10;99.90;;;;;;5030726;28;20506;-74
2021/12/13 04:57:33;;;;;;;26.10;24.30;;;7.10;99.90;;;;;;5030158;28;20444;-73
2021/12/13 05:00:07;;;;;;;27.40;25.30;;;7.10;99.90;;;;;;5030242;28;20459;-72
2021/12/13 05:02:34;;;;;;;24.77;22.97;;;7.10;99.90;;;;;;5030594;28;20567;-73
2021/12/13 05:05:04;;;;;;;27.00;24.90;;;7.10;99.90;;;;;;5032786;28;20514;-73
2021/12/13 05:07:32;;;;;;;27.30;25.30;;;7.00;99.90;;;;;;5050572;28;20454;-71
2021/12/13 05:10:02;;;;;;;26.63;24.83;;;7.00;99.90;;;;;;5050193;28;20517;-72
2021/12/13 05:12:29;;;;;;;29.00;26.30;;;7.00;99.90;;;;;;5050052;28;20453;-73
2021/12/13 05:14:59;;;;;;;29.30;26.60;;;7.10;99.90;;;;;;5050344;28;20465;-74
2021/12/13 05:17:29;;;;;;;27.07;24.80;;;7.10;99.90;;;;;;5049930;28;20448;-74
2021/12/13 05:20:01;;;;;;;28.10;25.63;;;7.00;99.90;;;;;;5050077;28;20448;-72
2021/12/13 05:22:29;;;;;;;26.13;24.23;;;7.00;99.90;;;;;;5050214;28;20814;-73
2021/12/13 05:25:07;;;;;;;28.37;25.90;;;7.00;99.90;;;;;;5050476;28;20455;-73
2021/12/13 05:27:37;;;;;;;29.30;27.20;;;6.90;99.90;;;;;;5053360;28;20465;-74
2021/12/13 05:30:11;;;;;;;30.20;27.80;;;6.90;99.90;;;;;;5054021;28;20485;-74
2021/12/13 05:32:42;;;;;;;29.20;26.77;;;6.90;99.90;;;;;;5053912;28;20545;-73
2021/12/13 05:35:21;;;;;;;28.43;26.33;;;6.90;99.90;;;;;;5053603;28;20953;-73
2021/12/13 05:37:51;;;;;;;28.93;26.40;;;6.90;99.90;;;;;;5053611;28;20466;-74
2021/12/13 05:40:22;;;;;;;31.27;28.50;;;6.90;99.90;;;;;;5053520;28;20802;-73
2021/12/13 05:42:53;;;;;;;31.63;28.43;;;6.90;99.90;;;;;;5053412;28;20455;-73
2021/12/13 05:45:31;;;;;;;30.87;28.27;;;6.90;99.90;;;;;;5053701;28;20443;-73
2021/12/13 05:48:02;;;;;;;30.20;27.93;;;6.90;99.90;;;;;;5053190;28;20813;-72
2021/12/13 05:50:35;;;;;;;30.87;27.90;;;6.90;99.90;;;;;;5053605;28;20448;-72
2021/12/13 05:53:10;;;;;;;31.20;28.57;;;6.90;99.90;;;;;;5053747;28;20455;-73
2021/12/13 05:55:52;;;;;;;31.67;28.97;;;7.00;99.90;;;;;;5053908;28;20949;-72
2021/12/13 05:58:36;;;;;;;32.33;29.57;;;7.10;99.90;;;;;;5053534;28;20454;-72
2021/12/13 06:01:10;;;;;;;30.80;28.20;;;7.10;99.90;;;;;;5053510;28;20521;-73
2021/12/13 06:03:38;;;;;;;28.73;26.53;;;7.00;99.90;;;;;;5053322;28;20448;-73
2021/12/13 06:06:10;;;;;;;31.30;28.67;;;7.00;99.90;;;;;;5053331;28;20448;-75
2021/12/13 06:08:44;;;;;;;29.30;27.27;;;7.00;99.90;;;;;;5053281;28;20497;-73
2021/12/13 06:11:16;;;;;;;29.33;27.03;;;7.00;99.90;;;;;;5053754;28;20442;-73
2021/12/13 06:14:06;;;;;;;31.47;28.80;;;7.00;99.90;;;;;;5053078;28;20846;-74
2021/12/13 06:16:41;;;;;;;30.50;28.10;;;7.10;99.90;;;;;;5049426;28;20455;-74
2021/12/13 06:19:12;;;;;;;31.13;28.53;;;7.10;99.90;;;;;;5052999;28;20435;-73
2021/12/13 06:22:02;;;;;;;29.30;27.10;;;7.00;99.90;;;;;;5053067;28;20856;-74
2021/12/13 06:24:33;;;;;;;28.33;25.53;;;7.00;99.90;;;;;;5052528;28;20851;-73
2021/12/13 06:27:20;;;;;;;30.50;28.17;;;7.00;99.90;;;;;;5053123;28;20447;-73
2021/12/13 06:30:02;;;;;;;30.30;27.50;;;7.00;99.90;;;;;;5052788;28;21005;-72
2021/12/13 06:32:40;;;;;;;30.57;27.80;;;7.10;99.90;;;;;;5052846;28;20541;-72
2021/12/13 06:35:38;;;;;;;31.17;28.87;;;7.10;99.90;;;;;;5052648;28;20462;-73
2021/12/13 06:38:27;;;;;;;31.20;28.60;;;7.10;99.90;;;;;;5052560;28;21023;-73
2021/12/13 06:40:56;;;;;;;30.47;27.97;;;7.10;99.90;;;;;;5052930;28;20455;-73
2021/12/13 06:43:31;;;;;;;36.40;32.67;;;7.10;99.90;;;;;;5052438;28;20847;-73
2021/12/13 06:45:59;;;;;;;37.70;34.47;;;7.10;99.90;;;;;;5052682;28;20440;-73
2021/12/13 06:48:40;;;;;;;32.90;29.80;;;7.20;99.90;;;;;;5051922;28;21024;-74
2021/12/13 06:51:10;;;;;;;32.07;28.83;;;7.30;99.90;;;;;;5052516;28;20886;-73
2021/12/13 06:53:37;;;;;;;29.00;26.40;;;7.40;99.90;;;;;;5052689;28;20447;-73
2021/12/13 06:56:22;;;;;;;30.20;27.40;;;7.30;99.90;;;;;;5052370;28;20451;-73
2021/12/13 06:58:56;;;;;;;32.90;29.90;;;7.20;99.90;;;;;;5052414;28;20452;-73
2021/12/13 07:01:23;;;;;;;33.20;30.13;;;7.20;99.90;;;;;;5052301;28;20463;-77
2021/12/13 07:03:58;;;;;;;34.60;31.20;;;7.10;99.90;;;;;;5052870;28;20473;-77
2021/12/13 07:06:26;;;;;;;32.67;29.57;;;7.10;99.90;;;;;;5052632;28;20437;-79
2021/12/13 07:09:13;;;;;;;30.27;27.30;;;7.10;99.90;;;;;;5044553;28;20476;-76
2021/12/13 07:11:49;;;;;;;32.20;29.20;;;7.20;99.90;;;;;;5041962;28;20454;-77
2021/12/13 07:14:20;;;;;;;29.47;26.70;;;7.20;99.90;;;;;;5041927;28;20493;-73
2021/12/13 07:16:50;;;;;;;30.70;27.40;;;7.20;99.90;;;;;;5041848;28;20799;-74
2021/12/13 07:19:21;;;;;;;30.53;27.40;;;7.30;99.90;;;;;;5041261;28;20488;-74
2021/12/13 07:21:54;;;;;;;30.50;27.60;;;7.30;99.90;;;;;;5042190;28;20444;-72
2021/12/13 07:24:30;;;;;;;28.63;25.77;;;7.30;99.90;;;;;;5040004;28;20596;-73
2021/12/13 07:27:04;;;;;;;28.53;26.07;;;7.30;99.90;;;;;;5041914;28;20469;-73
2021/12/13 07:29:39;;;;;;;29.90;26.80;;;7.30;99.90;;;;;;5042121;28;21016;-73
2021/12/13 07:32:10;;;;;;;29.73;26.80;;;7.20;99.90;;;;;;5039647;28;20466;-73
2021/12/13 07:34:50;;;;;;;29.30;26.73;;;7.20;99.90;;;;;;5039998;28;20826;-74
2021/12/13 07:37:17;;;;;;;28.93;26.33;;;7.20;99.90;;;;;;5041350;28;20497;-75
2021/12/13 07:39:45;;;;;;;30.40;27.70;;;7.20;99.90;;;;;;5041078;28;20443;-74
2021/12/13 07:42:14;;;;;;;28.73;25.90;;;7.30;99.90;;;;;;5042050;28;20488;-74
2021/12/13 07:44:46;;;;;;;27.80;25.50;;;7.30;99.90;;;;;;5050995;28;20506;-74
2021/12/13 07:47:16;;;;;;;29.70;26.70;;;7.30;99.90;;;;;;5051788;28;20504;-74
2021/12/13 07:49:46;;;;;;;28.03;25.10;;;7.30;99.90;;;;;;5050929;28;20490;-74
2021/12/13 07:52:25;;;;;;;28.10;25.57;;;7.30;99.90;;;;;;5051751;28;20466;-74
2021/12/13 07:54:52;;;;;;;30.70;27.40;;;7.40;99.90;;;;;;5051554;28;20455;-75
2021/12/13 07:57:22;;;;;;;30.57;27.50;;;7.50;99.90;;;;;;5051833;28;20456;-75
2021/12/13 07:59:53;;;;;;;31.80;28.10;;;7.60;99.90;;;;;;5050778;28;20961;-74
2021/12/13 08:02:25;;;;;;;29.07;26.33;;;7.50;99.90;;;;;;5051537;28;20448;-74
2021/12/13 08:04:55;;;;;;;29.60;26.70;;;7.50;99.90;;;;;;5051319;28;20570;-74
2021/12/13 08:07:25;;;;;;;31.13;28.13;;;7.50;99.90;;;;;;5051551;28;20864;-75
2021/12/13 08:09:56;;;;;;;28.33;25.73;;;7.60;99.90;;;;;;5051030;28;20859;-74
2021/12/13 08:12:26;;;;;;;28.13;25.47;;;7.70;99.90;;;;;;5051437;28;20459;-76
2021/12/13 08:15:09;;;;;;;31.20;28.40;;;7.80;99.90;;;;;;5051544;28;20451;-75
2021/12/13 08:17:42;;;;;;;29.73;26.73;;;7.80;99.90;;;;;;5031621;28;20436;-75
2021/12/13 08:20:14;;;;;;;33.20;28.50;;;7.80;99.90;;;;;;5031458;28;20487;-75
2021/12/13 08:22:44;;;;;;;32.50;28.27;;;7.80;99.90;;;;;;5030984;28;20480;-75
2021/12/13 08:25:19;;;;;;;30.23;27.40;;;7.70;99.90;;;;;;5050366;28;20988;-75
2021/12/13 08:27:52;;;;;;;32.27;29.10;;;7.80;99.90;;;;;;5051120;28;20451;-75
2021/12/13 08:30:25;;;;;;;30.07;27.50;;;7.80;99.90;;;;;;5044358;28;20504;-76
2021/12/13 08:33:06;;;;;;;32.17;28.70;;;7.80;99.90;;;;;;5040988;28;20462;-76
2021/12/13 08:35:55;;;;;;;31.43;28.23;;;7.80;99.90;;;;;;5040882;28;20446;-77
2021/12/13 08:38:30;;;;;;;31.30;28.00;;;7.80;99.90;;;;;;5040750;28;20444;-76
2021/12/13 08:40:59;;;;;;;32.60;29.50;;;7.90;99.90;;;;;;5039371;28;20452;-76
2021/12/13 08:43:40;;;;;;;29.73;27.00;;;7.80;99.90;;;;;;5035210;28;21018;-76
2021/12/13 08:46:11;;;;;;;30.90;27.87;;;7.70;99.90;;;;;;5030512;28;20487;-76
2021/12/13 08:48:47;;;;;;;30.33;27.40;;;7.80;99.90;;;;;;5031080;28;20440;-75
2021/12/13 08:51:21;;;;;;;29.10;26.23;;;7.90;99.90;;;;;;5030866;28;20919;-77
2021/12/13 08:53:58;;;;;;;28.17;25.57;;;8.00;99.90;;;;;;5031055;28;20506;-77
2021/12/13 08:56:27;;;;;;;31.20;28.00;;;7.90;99.90;;;;;;5031127;28;20463;-76
2021/12/13 08:58:59;;;;;;;30.15;27.35;;;7.90;99.90;;;;;;5030715;28;20468;-76
2021/12/13 09:01:28;;;;;;;30.03;26.80;;;7.90;99.90;;;;;;5034568;28;20205;-75
2021/12/13 09:03:55;;;;;;;28.30;25.33;;;8.10;99.90;;;;;;5035201;28;20457;-76
2021/12/13 09:06:31;;;;;;;28.63;25.83;;;8.20;99.90;;;;;;5048151;28;20448;-76
2021/12/13 09:09:06;;;;;;;34.30;27.97;;;8.10;99.90;;;;;;5055101;28;20459;-76
2021/12/13 09:11:37;;;;;;;30.30;27.00;;;8.10;99.90;;;;;;5054511;28;20513;-76
2021/12/13 09:14:13;;;;;;;27.53;24.93;;;8.10;99.90;;;;;;5054704;28;20448;-78
2021/12/13 09:16:54;;;;;;;27.23;24.40;;;8.20;99.90;;;;;;5055998;28;20463;-76
2021/12/13 09:19:24;;;;;;;32.27;28.00;;;8.10;99.90;;;;;;5050660;28;20487;-78
2021/12/13 09:21:56;;;;;;;29.90;26.77;;;8.10;99.90;;;;;;5048015;28;20451;-75
2021/12/13 09:24:27;;;;;;;32.97;29.37;;;8.10;99.90;;;;;;5057874;28;20444;-75
2021/12/13 09:26:57;;;;;;;30.30;27.47;;;8.10;99.90;;;;;;5058001;28;20433;-75
2021/12/13 09:29:25;;;;;;;32.17;28.50;;;8.10;99.90;;;;;;5050302;28;20531;-75
2021/12/13 09:31:53;;;;;;;30.87;27.97;;;8.20;99.90;;;;;;5037428;28;20485;-74
2021/12/13 09:34:22;;;;;;;34.67;29.73;;;8.30;99.90;;;;;;5037502;28;20448;-75
2021/12/13 09:36:52;;;;;;;30.00;27.30;;;8.30;99.90;;;;;;5036802;28;20463;-75
2021/12/13 09:39:25;;;;;;;33.27;29.30;;;8.30;99.90;;;;;;5035570;28;20445;-75
2021/12/13 09:41:58;;;;;;;35.60;31.73;;;8.20;99.90;;;;;;5035199;28;20452;-74
2021/12/13 09:44:31;;;;;;;34.07;30.23;;;8.40;99.90;;;;;;5033874;28;21020;-76
2021/12/13 09:47:05;;;;;;;30.93;27.80;;;8.30;99.90;;;;;;5032403;28;21222;-77
2021/12/13 09:49:36;;;;;;;30.10;27.40;;;8.40;99.90;;;;;;5045538;28;20583;-75
2021/12/13 09:52:07;;;;;;;31.77;28.70;;;8.40;99.90;;;;;;5054177;28;20474;-75
2021/12/13 09:54:40;;;;;;;33.13;28.70;;;8.50;99.90;;;;;;5054006;28;20463;-75
2021/12/13 09:57:12;;;;;;;36.07;29.50;;;8.60;99.90;;;;;;5054196;28;20451;-76
2021/12/13 09:59:41;;;;;;;30.70;27.50;;;8.60;99.90;;;;;;5053689;28;20848;-76
2021/12/13 10:02:16;;;;;;;32.67;29.33;;;8.80;99.90;;;;;;5053765;28;20463;-76
2021/12/13 10:04:45;;;;;;;30.73;27.63;;;8.80;99.90;;;;;;5053930;28;20494;-76
2021/12/13 10:07:15;;;;;;;29.90;26.90;;;9.00;99.90;;;;;;5052090;28;20451;-75
2021/12/13 10:09:45;;;;;;;29.80;26.83;;;9.00;99.90;;;;;;5053811;28;20482;-75
2021/12/13 10:12:19;;;;;;;30.37;27.57;;;9.10;99.90;;;;;;5052793;28;20934;-75
2021/12/13 10:14:49;;;;;;;29.47;26.60;;;9.10;99.90;;;;;;5053729;28;20462;-76
2021/12/13 10:17:19;;;;;;;31.37;28.13;;;9.10;99.90;;;;;;5053491;28;20456;-76
2021/12/13 10:19:51;;;;;;;28.07;25.63;;;9.10;99.90;;;;;;5053236;28;20452;-76
2021/12/13 10:22:24;;;;;;;27.77;24.87;;;9.40;99.90;;;;;;5053094;28;20994;-75
2021/12/13 10:24:54;;;;;;;27.20;25.00;;;9.50;99.90;;;;;;5053355;28;20452;-75
2021/12/13 10:27:23;;;;;;;24.70;22.47;;;9.90;99.90;;;;;;5053664;28;20842;-76
2021/12/13 10:29:53;;;;;;;27.97;25.67;;;9.90;99.90;;;;;;5053511;28;20488;-75
2021/12/13 10:32:24;;;;;;;26.33;24.00;;;10.00;99.90;;;;;;5053455;28;20455;-75
2021/12/13 10:34:54;;;;;;;27.77;24.87;;;10.20;99.90;;;;;;5053455;28;20483;-74
2021/12/13 10:37:23;;;;;;;27.13;24.53;;;10.40;99.90;;;;;;5052926;28;20452;-76
2021/12/13 10:39:52;;;;;;;25.37;22.97;;;10.30;99.90;;;;;;5050642;28;20981;-76
2021/12/13 10:42:24;;;;;;;27.77;25.27;;;10.40;99.90;;;;;;5050532;28;20487;-76
2021/12/13 10:44:51;;;;;;;24.87;22.57;;;10.30;99.90;;;;;;5051306;28;20487;-75
2021/12/13 10:47:22;;;;;;;26.43;24.00;;;10.30;99.90;;;;;;5051276;28;20449;-76
2021/12/13 10:49:52;;;;;;;27.93;25.27;;;10.40;99.90;;;;;;5050976;28;20476;-76
2021/12/13 10:52:30;;;;;;;28.87;25.97;;;10.40;99.90;;;;;;5051321;28;20514;-76
2021/12/13 10:55:01;;;;;;;27.83;25.03;;;10.40;99.90;;;;;;5032390;28;20452;-77
2021/12/13 10:57:31;;;;;;;29.77;26.73;;;10.50;99.90;;;;;;5049189;28;20444;-78
2021/12/13 10:59:59;;;;;;;27.63;24.90;;;10.70;99.90;;;;;;5052764;28;20459;-76
2021/12/13 11:02:32;;;;;;;29.87;26.87;;;11.00;99.90;;;;;;5052854;28;20451;-80
2021/12/13 11:05:02;;;;;;;30.47;27.40;;;10.90;99.90;;;;;;5053077;28;20444;-77
2021/12/13 11:07:30;;;;;;;28.97;26.23;;;10.80;99.90;;;;;;5053042;28;20467;-77
2021/12/13 11:09:59;;;;;;;28.53;26.03;;;10.80;99.90;;;;;;5051983;28;20566;-78
2021/12/13 11:12:29;;;;;;;27.13;24.70;;;10.80;99.90;;;;;;5052562;28;20451;-78
2021/12/13 11:14:58;;;;;;;27.20;24.53;;;10.60;99.90;;;;;;5052676;28;20810;-77
2021/12/13 11:17:31;;;;;;;28.13;25.50;;;10.50;99.90;;;;;;5052740;28;20555;-78
2021/12/13 11:20:01;;;;;;;29.77;27.13;;;10.30;99.90;;;;;;5052485;28;20485;-78
2021/12/13 11:22:31;;;;;;;29.23;26.73;;;10.20;99.90;;;;;;5052238;28;20837;-78
2021/12/13 11:25:01;;;;;;;29.10;26.37;;;10.60;99.90;;;;;;5051293;28;20502;-77
2021/12/13 11:27:31;;;;;;;29.13;26.30;;;10.80;99.90;;;;;;5052139;28;20452;-78
2021/12/13 11:29:59;;;;;;;28.80;26.10;;;10.90;99.90;;;;;;5052361;28;20533;-78
2021/12/13 11:33:03;;;;;;;27.00;24.77;;;10.90;99.90;;;;;;5052154;28;20953;-78
2021/12/13 11:36:17;;;;;;;26.03;23.70;;;11.00;99.90;;;;;;5052196;28;20444;-77
2021/12/13 11:39:21;;;;;;;24.77;22.77;;;11.10;99.90;;;;;;5052115;28;20475;-78
2021/12/13 11:42:25;;;;;;;25.00;22.97;;;10.80;99.90;;;;;;5032947;28;20712;-78
2021/12/13 11:45:08;;;;;;;24.93;22.73;;;10.90;99.90;;;;;;5051256;28;20502;-77
2021/12/13 11:48:13;;;;;;;26.17;23.87;;;11.10;99.90;;;;;;5040222;28;20451;-77
2021/12/13 11:51:09;;;;;;;24.80;22.90;;;10.90;99.90;;;;;;5041746;28;20941;-77
2021/12/13 11:53:54;;;;;;;24.10;22.10;;;11.00;99.90;;;;;;5031572;28;20467;-77
2021/12/13 11:56:37;;;;;;;23.97;21.87;;;11.10;99.90;;;;;;5031758;28;20448;-77
2021/12/13 11:59:33;;;;;;;24.33;22.17;;;11.10;99.90;;;;;;5033022;28;20821;-76
2021/12/13 12:02:10;;;;;;;23.67;21.77;;;10.90;99.90;;;;;;5045801;28;20435;-76
2021/12/13 12:05:14;;;;;;;23.57;21.47;;;10.90;99.90;;;;;;5051583;28;20451;-76
2021/12/13 12:08:14;;;;;;;21.43;19.83;;;11.30;99.90;;;;;;5051688;28;20513;-75
2021/12/13 12:11:03;;;;;;;22.23;20.13;;;11.50;99.90;;;;;;5051593;28;20561;-77
2021/12/13 12:13:39;;;;;;;23.20;21.00;;;11.30;99.90;;;;;;5051266;28;20432;-77
2021/12/13 12:16:07;;;;;;;21.70;20.00;;;11.30;99.90;;;;;;5051587;28;20454;-78
2021/12/13 12:18:38;;;;;;;23.10;21.20;;;11.20;99.90;;;;;;5051358;28;20968;-76
2021/12/13 12:21:42;;;;;;;24.93;23.03;;;11.30;99.90;;;;;;5051416;28;20942;-76
2021/12/13 12:24:11;;;;;;;25.97;23.47;;;11.30;99.90;;;;;;5051514;28;20482;-76
2021/12/13 12:26:39;;;;;;;26.07;23.50;;;11.20;99.90;;;;;;5051123;28;20865;-77
2021/12/13 12:29:12;;;;;;;23.40;21.80;;;11.20;99.90;;;;;;5051284;28;20459;-77
2021/12/13 12:31:41;;;;;;;23.60;21.43;;;11.30;99.90;;;;;;5051242;28;20503;-77
2021/12/13 12:34:10;;;;;;;25.63;23.33;;;11.20;99.90;;;;;;5051175;28;20459;-75
2021/12/13 12:36:43;;;;;;;25.23;23.03;;;11.10;99.90;;;;;;5050733;28;20455;-76
2021/12/13 12:39:47;;;;;;;24.80;22.47;;;11.40;99.90;;;;;;5051221;28;20462;-75
2021/12/13 12:42:24;;;;;;;23.13;21.23;;;11.30;99.90;;;;;;5051100;28;20808;-75
2021/12/13 12:45:08;;;;;;;23.17;21.20;;;11.50;99.90;;;;;;5047352;28;20851;-77
2021/12/13 12:48:12;;;;;;;23.43;21.33;;;11.60;99.90;;;;;;5040634;28;20839;-75
2021/12/13 12:50:49;;;;;;;22.73;20.90;;;11.70;99.90;;;;;;5041013;28;20488;-77
2021/12/13 12:53:23;;;;;;;22.23;20.50;;;11.90;99.90;;;;;;5038741;28;20824;-76
2021/12/13 12:55:55;;;;;;;24.20;22.30;;;11.90;99.90;;;;;;5039999;28;20456;-77
2021/12/13 12:58:29;;;;;;;21.03;19.33;;;12.00;99.90;;;;;;5040839;28;20924;-76
2021/12/13 13:01:00;;;;;;;19.97;18.67;;;11.70;99.90;;;;;;5043095;28;20451;-76
2021/12/13 13:03:30;;;;;;;23.30;20.93;;;11.70;99.90;;;;;;5041616;28;20464;-76
2021/12/13 13:06:04;;;;;;;20.93;19.33;;;11.80;99.90;;;;;;5038627;28;20457;-76
2021/12/13 13:08:34;;;;;;;22.03;20.53;;;11.80;99.90;;;;;;5040132;28;20494;-76
2021/12/13 13:13:47;;;;;;;18.97;17.53;;;11.40;99.90;;;;;;5041936;28;20430;-76
2021/12/13 13:16:17;;;;;;;21.40;19.60;;;11.30;99.90;;;;;;5042142;28;20459;-76